Main page
METAR-TAF:

METAR-TAF

Airports :

RAF Wittering

Wittering, England

latitude: 52-37N, longitude: 000-28W, elevation: 84 m

Current weather observation

The report was made 1 hour and 12 minutes ago, at 21:50 UTC
Wind 7 kt from the East
Temperature 5°C
Humidity 93%
Pressure 999 hPa
Visibility: 3600 m
mist

METAR: EGXT 212150Z AUTO 09007KT 3600 BR FEW006/// OVC009/// 05/04 Q0999

Time: 23:02 (23:02 UTC)

Forecast

The report was made 9 hours and 24 minutes ago, at 13:38 UTC
Forecast valid from 21 at 15 UTC to 21 at 18 UTC
Wind 12 kt from the East
Visibility 10 km or more
Broken clouds at a height of 1500 ft
Temporary
from 21 at 15 UTC to 21 at 18 UTC
Broken clouds at a height of 1300 ft
Probability 40%
from 21 at 15 UTC to 21 at 18 UTC
Visibility: 6000 m
haze
Probability 30%
from 21 at 17 UTC to 21 at 18 UTC
Visibility: 4000 m
mist

TAF: EGXT 211338Z 2115/2118 10012KT 9999 BKN015 TEMPO 2115/2118 BKN013 PROB40 2115/2118 6000 HZ PROB30 2117/2118 4000 BR

Weather observations and forecasts of more than 4000 airports (METAR and TAF reports).

The available stations are represented by yellow and red dots on the map.

Hover mouse over dot to see the name of the station.

Then click to see weather observations and forecasts.

To change the map : click on the green buttons with a black cross to zoom in, on the green button with a dash to zoom out, or on the green arrows for adjacent maps.


METAR-TAF: